Time;durP1;ratioP1;P1;durP2;ratioP2;P2;SDS_P1;SDS_P2;PMS_P1;PMS_P2;Temp;Humidity;BMP_temperature;BMP_pressure;BME280_temperature;BME280_humidity;BME280_pressure;Samples;Min_cycle;Max_cycle;Signal;HPM_P1;HPM_P2
2022/12/21 00:00:15;;;;;;;21.30;16.00;;;;;;;12.67;70.92;100442.72;672555;29;1069;-80
2022/12/21 00:00:36;;;;;;;20.88;16.23;;;;;;;12.78;71.04;100452.50;669950;29;1258;-80
2022/12/21 00:01:20;;;;;;;19.83;16.10;;;;;;;12.73;70.88;100440.19;675201;29;1317;-79
2022/12/21 00:01:40;;;;;;;20.73;16.85;;;;;;;12.72;70.70;100445.44;675112;29;1095;-79
2022/12/21 00:02:01;;;;;;;22.23;17.27;;;;;;;12.75;70.51;100440.22;672637;29;1252;-80
2022/12/21 00:02:22;;;;;;;22.00;17.43;;;;;;;12.76;70.65;100447.22;672710;29;760;-80
2022/12/21 00:02:42;;;;;;;22.88;17.85;;;;;;;12.75;70.69;100443.75;677637;29;1280;-80
2022/12/21 00:03:03;;;;;;;23.37;18.50;;;;;;;12.78;70.85;100448.13;680422;29;1014;-79
2022/12/21 00:03:32;;;;;;;25.13;18.30;;;;;;;12.79;70.71;100436.78;680477;29;836;-79
2022/12/21 00:03:55;;;;;;;25.35;18.27;;;;;;;12.82;70.59;100446.41;672685;29;786;-79
2022/12/21 00:04:16;;;;;;;24.23;18.65;;;;;;;12.81;70.56;100445.56;672529;29;1133;-80
2022/12/21 00:04:36;;;;;;;25.33;19.10;;;;;;;12.82;70.43;100446.41;670023;29;969;-80
2022/12/21 00:04:57;;;;;;;24.25;18.98;;;;;;;12.80;70.67;100437.66;672591;29;1205;-80
2022/12/21 00:05:18;;;;;;;23.25;18.52;;;;;;;12.82;70.37;100436.84;668528;29;1226;-79
2022/12/21 00:05:39;;;;;;;22.13;18.13;;;;;;;12.85;70.69;100447.34;670038;29;1094;-80
2022/12/21 00:05:59;;;;;;;23.48;18.23;;;;;;;12.85;70.76;100438.63;670043;29;1862;-80
2022/12/21 00:06:21;;;;;;;24.00;18.42;;;;;;;12.85;70.71;100436.88;675121;29;1324;-80
2022/12/21 00:06:42;;;;;;;24.80;18.77;;;;;;;12.81;70.54;100435.09;677587;29;1379;-79
2022/12/21 00:07:02;;;;;;;22.67;18.87;;;;;;;12.80;70.58;100438.56;672505;29;1248;-79
2022/12/21 00:07:29;;;;;;;22.20;18.40;;;;;;;12.85;70.41;100438.63;670201;29;832;-80
2022/12/21 00:07:49;;;;;;;22.48;18.75;;;;;;;12.81;70.73;100435.09;672584;29;1200;-79
2022/12/21 00:08:25;;;;;;;23.17;18.90;;;;;;;12.86;70.74;100443.00;672536;29;1156;-80
2022/12/21 00:08:47;;;;;;;22.73;18.55;;;;;;;12.86;70.55;100441.25;672825;29;1953;-80
2022/12/21 00:09:11;;;;;;;22.33;17.95;;;;;;;12.86;70.47;100446.47;675089;29;1445;-80
2022/12/21 00:09:33;;;;;;;22.50;17.98;;;;;;;12.85;70.43;100439.47;675098;29;956;-80
2022/12/21 00:09:54;;;;;;;22.05;18.20;;;;;;;12.79;70.29;100433.28;675159;29;1338;-78
2022/12/21 00:10:14;;;;;;;21.83;18.30;;;;;;;12.82;70.45;100439.47;672465;29;1057;-77
2022/12/21 00:10:35;;;;;;;22.42;18.67;;;;;;;12.80;70.51;100435.06;670041;29;1053;-77
2022/12/21 00:10:59;;;;;;;24.03;19.03;;;;;;;12.83;70.26;100443.84;667529;29;926;-76
2022/12/21 00:11:21;;;;;;;24.60;18.88;;;;;;;12.81;70.56;100434.19;670117;29;1144;-77
2022/12/21 00:11:42;;;;;;;23.83;18.48;;;;;;;12.77;70.68;100438.50;672629;29;1247;-77
2022/12/21 00:12:03;;;;;;;23.38;18.45;;;;;;;12.71;70.39;100433.19;672755;29;1127;-77
2022/12/21 00:12:23;;;;;;;24.23;18.80;;;;;;;12.72;70.65;100437.59;672715;29;789;-79
2022/12/21 00:12:44;;;;;;;24.40;19.67;;;;;;;12.73;70.69;100431.47;675263;29;1079;-79
2022/12/21 00:13:04;;;;;;;23.63;19.23;;;;;;;12.77;70.39;100445.50;671800;29;1137;-79
2022/12/21 00:13:25;;;;;;;22.83;18.93;;;;;;;12.68;70.58;100435.75;672621;29;1017;-79
2022/12/21 00:13:47;;;;;;;21.88;18.50;;;;;;;12.74;70.90;100441.09;675206;29;1239;-79
2022/12/21 00:14:08;;;;;;;22.55;18.58;;;;;;;12.63;70.56;100430.47;675326;29;1107;-80
2022/12/21 00:14:29;;;;;;;22.70;18.77;;;;;;;12.72;70.98;100442.81;672554;29;1995;-79
2022/12/21 00:14:50;;;;;;;22.83;18.80;;;;;;;12.72;70.79;100442.81;672460;29;1175;-79
2022/12/21 00:15:10;;;;;;;22.70;18.90;;;;;;;12.66;70.88;100440.97;669969;29;952;-79
2022/12/21 00:15:31;;;;;;;23.47;19.03;;;;;;;12.65;70.69;100435.72;675140;29;1176;-79
2022/12/21 00:15:59;;;;;;;24.50;19.02;;;;;;;12.64;70.85;100428.75;672661;29;789;-79
2022/12/21 00:16:22;;;;;;;25.02;19.20;;;;;;;12.59;70.74;100440.00;672512;29;1244;-79
2022/12/21 00:16:43;;;;;;;25.15;19.17;;;;;;;12.61;71.00;100435.66;674593;29;1390;-79
2022/12/21 00:17:04;;;;;;;24.48;19.20;;;;;;;12.63;71.13;100437.44;675103;29;1132;-79
2022/12/21 00:17:24;;;;;;;24.77;20.00;;;;;;;12.64;71.26;100441.84;672644;29;1229;-79
2022/12/21 00:17:45;;;;;;;25.02;20.33;;;;;;;12.63;71.29;100440.03;667546;29;1124;-79
2022/12/21 00:18:05;;;;;;;26.50;21.10;;;;;;;12.65;71.34;100444.44;670095;29;1062;-79
2022/12/21 00:18:27;;;;;;;28.67;21.60;;;;;;;12.60;71.12;100431.28;667510;29;1075;-79
2022/12/21 00:18:47;;;;;;;28.75;21.90;;;;;;;12.60;70.97;100444.38;672589;29;1230;-79
2022/12/21 00:19:13;;;;;;;28.27;21.55;;;;;;;12.65;71.08;100448.81;680317;29;1124;-79
2022/12/21 00:19:33;;;;;;;26.75;20.80;;;;;;;12.63;70.85;100440.94;677883;29;1063;-79
2022/12/21 00:19:54;;;;;;;27.27;21.05;;;;;;;12.61;71.05;100440.91;672609;29;1242;-80
2022/12/21 00:20:16;;;;;;;25.77;21.35;;;;;;;12.57;71.24;100441.75;672529;29;1421;-79
2022/12/21 00:20:36;;;;;;;26.08;21.27;;;;;;;12.61;71.15;100445.28;675192;29;1119;-80
2022/12/21 00:21:04;;;;;;;27.53;21.17;;;;;;;12.65;71.20;100449.69;677715;29;999;-80
2022/12/21 00:21:30;;;;;;;30.98;21.75;;;;;;;12.65;71.08;100438.34;677816;29;1259;-80
2022/12/21 00:21:50;;;;;;;29.83;22.08;;;;;;;12.66;71.02;100450.56;672587;29;1247;-80
2022/12/21 00:22:11;;;;;;;28.20;21.90;;;;;;;12.64;70.83;100442.69;672520;29;1020;-79
2022/12/21 00:22:31;;;;;;;27.20;21.98;;;;;;;12.65;71.04;100449.69;675034;29;1192;-80
2022/12/21 00:22:52;;;;;;;27.80;22.80;;;;;;;12.63;70.69;100440.94;675287;29;820;-79
2022/12/21 00:23:13;;;;;;;29.00;23.30;;;;;;;12.65;70.91;100443.59;677635;29;1140;-80
2022/12/21 00:23:33;;;;;;;28.47;22.40;;;;;;;12.66;70.92;100447.97;675119;29;1163;-80
2022/12/21 00:23:58;;;;;;;28.77;21.92;;;;;;;12.71;70.77;100448.88;677876;29;819;-80
2022/12/21 00:24:19;;;;;;;29.00;21.95;;;;;;;12.67;70.96;100441.88;677775;29;1011;-79
2022/12/21 00:24:39;;;;;;;31.65;23.63;;;;;;;12.65;70.61;100436.59;674934;29;1171;-79
2022/12/21 00:25:00;;;;;;;30.57;23.67;;;;;;;12.68;70.95;100448.84;674978;29;1148;-79
2022/12/21 00:25:21;;;;;;;30.52;23.50;;;;;;;12.71;70.82;100460.25;675196;29;1066;-79
2022/12/21 00:25:41;;;;;;;29.35;22.88;;;;;;;12.72;70.88;100451.53;672449;29;1438;-80
2022/12/21 00:26:05;;;;;;;29.57;23.17;;;;;;;12.71;70.75;100448.88;672398;29;1231;-80
2022/12/21 00:26:28;;;;;;;29.13;23.92;;;;;;;12.70;70.90;100452.38;675274;29;1081;-80
2022/12/21 00:26:49;;;;;;;31.90;24.38;;;;;;;12.65;70.92;100449.69;674789;29;1352;-80
2022/12/21 00:27:11;;;;;;;33.97;25.50;;;;;;;12.65;70.98;100448.81;677685;29;1921;-80
2022/12/21 00:27:31;;;;;;;32.97;24.95;;;;;;;12.65;70.97;100446.22;675133;29;975;-80
2022/12/21 00:27:52;;;;;;;31.20;24.38;;;;;;;12.69;70.81;100451.50;675228;29;1066;-80
2022/12/21 00:28:12;;;;;;;29.40;23.20;;;;;;;12.71;70.92;100449.78;675024;29;1465;-80
2022/12/21 00:28:34;;;;;;;28.77;22.73;;;;;;;12.70;70.63;100453.25;672492;29;1919;-79
2022/12/21 00:28:56;;;;;;;29.80;23.35;;;;;;;12.69;70.68;100453.22;677775;29;1230;-80
2022/12/21 00:29:17;;;;;;;30.80;23.88;;;;;;;12.70;70.67;100445.41;677755;29;1208;-80
2022/12/21 00:29:37;;;;;;;30.70;24.00;;;;;;;12.77;71.06;100458.59;672534;29;1169;-80
2022/12/21 00:29:58;;;;;;;29.77;23.80;;;;;;;12.77;70.74;100446.34;672541;29;1168;-80
2022/12/21 00:30:18;;;;;;;30.80;24.05;;;;;;;12.78;70.49;100450.72;669835;29;998;-80
2022/12/21 00:30:39;;;;;;;32.50;24.23;;;;;;;12.82;70.22;100462.13;674735;29;1267;-79
2022/12/21 00:31:11;;;;;;;32.08;24.25;;;;;;;12.86;70.52;100469.19;675217;29;1143;-79
2022/12/21 00:31:34;;;;;;;30.67;24.15;;;;;;;12.86;70.12;100459.56;674573;29;927;-80
2022/12/21 00:31:55;;;;;;;32.28;24.35;;;;;;;12.81;70.25;100450.78;672535;29;1099;-79
2022/12/21 00:32:19;;;;;;;30.60;23.73;;;;;;;12.82;70.14;100452.53;677675;29;1156;-79
2022/12/21 00:32:39;;;;;;;30.60;23.55;;;;;;;12.85;70.06;100457.81;677668;29;1094;-79
2022/12/21 00:33:00;;;;;;;29.37;23.07;;;;;;;12.91;70.39;100464.88;674984;29;1123;-80
2022/12/21 00:33:21;;;;;;;32.00;24.80;;;;;;;12.91;69.94;100471.88;672511;29;1335;-80
2022/12/21 00:33:44;;;;;;;31.75;25.15;;;;;;;12.89;70.08;100467.50;672436;29;1095;-80
2022/12/21 00:34:05;;;;;;;32.65;25.83;;;;;;;12.86;70.39;100461.31;675025;29;1150;-79
2022/12/21 00:34:25;;;;;;;31.10;24.42;;;;;;;12.84;69.97;100453.44;669976;29;1260;-80
2022/12/21 00:34:46;;;;;;;30.80;24.05;;;;;;;12.91;70.24;100461.38;670023;29;827;-80
2022/12/21 00:35:07;;;;;;;29.23;23.60;;;;;;;12.87;70.10;100463.97;672492;29;1040;-80
2022/12/21 00:35:27;;;;;;;29.83;24.05;;;;;;;12.87;70.44;100466.59;672589;29;1123;-80
2022/12/21 00:35:51;;;;;;;31.25;23.92;;;;;;;12.91;70.20;100464.88;675051;29;1530;-80
2022/12/21 00:36:15;;;;;;;31.65;23.70;;;;;;;12.87;70.17;100461.34;675065;29;1143;-79
2022/12/21 00:36:36;;;;;;;33.47;23.52;;;;;;;12.88;70.19;100463.13;674912;29;1431;-80
2022/12/21 00:36:57;;;;;;;33.33;23.48;;;;;;;12.87;70.02;100458.75;675073;29;1113;-80
2022/12/21 00:37:17;;;;;;;30.48;23.63;;;;;;;12.82;70.28;100444.69;677672;29;1506;-80
2022/12/21 00:37:38;;;;;;;29.50;23.43;;;;;;;12.87;70.22;100470.94;675054;29;1236;-80
2022/12/21 00:37:59;;;;;;;29.05;23.70;;;;;;;12.86;69.77;100459.56;674920;29;1256;-80
2022/12/21 00:38:20;;;;;;;29.80;23.73;;;;;;;12.86;70.30;100466.56;675176;29;2027;-79
2022/12/21 00:38:42;;;;;;;32.30;25.00;;;;;;;12.85;70.27;100464.81;672441;29;1244;-79
2022/12/21 00:39:03;;;;;;;31.90;24.80;;;;;;;12.80;70.49;100449.03;672500;29;1122;-80
2022/12/21 00:39:23;;;;;;;30.50;24.27;;;;;;;12.84;70.07;100469.16;672199;29;1361;-80
2022/12/21 00:39:44;;;;;;;28.20;23.03;;;;;;;12.83;70.32;100458.66;672526;29;1060;-79
2022/12/21 00:40:05;;;;;;;28.95;23.52;;;;;;;12.86;70.27;100459.56;674987;29;1413;-80
2022/12/21 00:40:26;;;;;;;31.67;24.27;;;;;;;12.83;70.46;100463.88;672492;29;1197;-80
2022/12/21 00:40:55;;;;;;;31.00;24.07;;;;;;;12.84;70.29;100456.06;672540;29;819;-80
2022/12/21 00:41:19;;;;;;;31.27;23.60;;;;;;;12.85;70.11;100457.81;669935;29;1068;-80
2022/12/21 00:41:40;;;;;;;31.20;23.52;;;;;;;12.87;70.16;100463.97;672439;29;1008;-80
2022/12/21 00:42:00;;;;;;;32.47;23.80;;;;;;;12.81;70.02;100455.13;672547;29;1001;-79
2022/12/21 00:42:21;;;;;;;32.03;24.00;;;;;;;12.78;70.31;100461.22;672534;29;1083;-79
2022/12/21 00:42:42;;;;;;;32.53;24.55;;;;;;;12.82;70.42;100460.41;672460;29;1115;-80
2022/12/21 00:43:03;;;;;;;30.92;23.45;;;;;;;12.85;70.04;100468.28;669880;29;1227;-79
2022/12/21 00:43:23;;;;;;;29.13;22.37;;;;;;;12.82;69.90;100460.41;667547;29;738;-79
2022/12/21 00:43:44;;;;;;;28.45;22.15;;;;;;;12.84;70.25;100461.28;667271;29;1254;-80
2022/12/21 00:44:05;;;;;;;30.10;23.50;;;;;;;12.82;70.18;100457.78;671460;29;1356;-80
2022/12/21 00:44:26;;;;;;;30.20;23.55;;;;;;;12.83;70.15;100453.41;669932;29;1097;-80
2022/12/21 00:44:46;;;;;;;30.48;23.85;;;;;;;12.89;70.42;100461.34;672436;29;1222;-80
2022/12/21 00:45:07;;;;;;;28.60;23.10;;;;;;;12.87;70.43;100460.47;672404;29;1082;-80
2022/12/21 00:45:28;;;;;;;29.60;22.95;;;;;;;12.85;70.01;100451.72;672487;29;1103;-79
2022/12/21 00:45:48;;;;;;;30.00;22.83;;;;;;;12.92;69.98;100457.91;667362;29;1363;-80
2022/12/21 00:46:18;;;;;;;31.80;23.60;;;;;;;12.86;69.82;100453.47;669913;29;1042;-80
2022/12/21 00:46:40;;;;;;;32.10;24.00;;;;;;;12.85;69.82;100455.19;672345;29;1230;-80
2022/12/21 00:47:01;;;;;;;32.05;24.17;;;;;;;12.86;69.79;100453.47;675098;29;1071;-79
2022/12/21 00:47:22;;;;;;;31.33;24.15;;;;;;;12.93;70.18;100460.59;675276;29;804;-80
2022/12/21 00:47:43;;;;;;;32.10;24.70;;;;;;;12.87;69.83;100456.13;675160;29;1039;-80
2022/12/21 00:48:04;;;;;;;32.47;24.50;;;;;;;12.91;69.84;100453.53;672348;29;1229;-80
2022/12/21 00:48:26;;;;;;;33.40;24.02;;;;;;;12.84;69.94;100445.59;667405;29;786;-80
2022/12/21 00:48:47;;;;;;;32.92;23.80;;;;;;;12.85;69.92;100457.81;669870;29;1919;-79
2022/12/21 00:49:09;;;;;;;31.75;23.77;;;;;;;12.86;69.99;100453.47;667307;29;1128;-80
2022/12/21 00:49:30;;;;;;;30.90;24.10;;;;;;;12.81;70.10;100450.78;667455;29;982;-80
2022/12/21 00:49:51;;;;;;;31.95;24.80;;;;;;;12.82;69.95;100452.53;669991;29;1151;-79
2022/12/21 00:50:11;;;;;;;31.92;24.40;;;;;;;12.81;69.99;100447.28;674984;29;1182;-79
2022/12/21 00:50:33;;;;;;;31.57;24.63;;;;;;;12.87;70.07;100466.59;677677;29;1313;-79
2022/12/21 00:50:53;;;;;;;31.08;24.42;;;;;;;12.78;69.89;100450.72;675244;29;721;-80
2022/12/21 00:51:19;;;;;;;32.10;24.60;;;;;;;12.87;70.05;100463.97;674490;29;1251;-79
2022/12/21 00:51:40;;;;;;;31.40;24.25;;;;;;;12.83;70.04;100456.03;672516;29;1297;-79
2022/12/21 00:52:01;;;;;;;31.43;24.10;;;;;;;12.82;69.81;100452.53;675079;29;1179;-80
2022/12/21 00:52:21;;;;;;;32.25;24.02;;;;;;;12.81;70.33;100461.25;677608;29;1108;-79
2022/12/21 00:52:42;;;;;;;33.55;24.90;;;;;;;12.81;70.13;100461.25;677631;29;1488;-79
2022/12/21 00:53:03;;;;;;;35.20;25.20;;;;;;;12.78;70.20;100455.97;674983;29;1266;-80
2022/12/21 00:53:23;;;;;;;32.72;24.40;;;;;;;12.80;70.05;100461.22;672522;29;1211;-80
2022/12/21 00:53:44;;;;;;;33.10;24.20;;;;;;;12.88;70.11;100470.06;672509;29;985;-80
2022/12/21 00:54:05;;;;;;;32.30;24.48;;;;;;;12.84;70.25;100461.28;669914;29;1124;-80
2022/12/21 00:54:25;;;;;;;33.22;25.33;;;;;;;12.85;69.84;100463.06;672341;29;1118;-79
2022/12/21 00:54:46;;;;;;;34.73;25.70;;;;;;;12.80;69.88;100454.28;672710;29;1087;-79
2022/12/21 00:55:07;;;;;;;34.13;25.40;;;;;;;12.83;70.02;100458.66;675060;29;1037;-79
2022/12/21 00:55:28;;;;;;;35.22;25.10;;;;;;;12.82;69.94;100465.63;672452;29;1115;-80
2022/12/21 00:55:56;;;;;;;34.60;25.52;;;;;;;12.72;70.24;100461.16;677672;29;1347;-80
2022/12/21 00:56:17;;;;;;;36.03;26.30;;;;;;;12.73;69.92;100457.66;672516;29;964;-80
2022/12/21 00:56:38;;;;;;;34.00;25.67;;;;;;;12.78;70.41;100460.34;674942;29;1520;-79
2022/12/21 00:56:59;;;;;;;31.97;24.50;;;;;;;12.75;70.08;100459.44;672528;29;952;-79
2022/12/21 00:57:19;;;;;;;31.50;24.47;;;;;;;12.75;70.10;100461.19;672544;29;1009;-80
2022/12/21 00:57:40;;;;;;;31.63;24.60;;;;;;;12.75;70.20;100458.56;672617;29;1306;-80
2022/12/21 00:58:01;;;;;;;34.20;25.47;;;;;;;12.78;70.14;100462.97;672595;29;1010;-80
2022/12/21 00:58:23;;;;;;;33.83;25.05;;;;;;;12.79;70.33;100468.19;677662;29;1190;-80
2022/12/21 00:58:44;;;;;;;33.80;23.98;;;;;;;12.74;70.15;100449.81;674960;29;1777;-79
2022/12/21 00:59:05;;;;;;;32.63;23.77;;;;;;;12.65;70.31;100459.28;672417;29;1125;-80
2022/12/21 00:59:26;;;;;;;34.57;25.17;;;;;;;12.52;70.49;100450.38;670007;29;819;-79
2022/12/21 00:59:46;;;;;;;34.37;25.33;;;;;;;12.65;70.35;100461.91;672458;29;1144;-79
2022/12/21 01:00:10;;;;;;;34.22;25.20;;;;;;;12.77;70.41;100472.53;669752;29;1366;-79
2022/12/21 01:00:30;;;;;;;34.92;24.48;;;;;;;12.77;70.12;100466.44;675113;29;1042;-79
2022/12/21 01:00:53;;;;;;;35.13;24.77;;;;;;;12.75;70.36;100461.19;675051;29;1165;-78
2022/12/21 01:01:33;;;;;;;34.67;24.77;;;;;;;12.76;70.17;100457.69;675095;29;1177;-79
2022/12/21 01:01:54;;;;;;;35.88;26.00;;;;;;;12.77;70.31;100464.69;677817;29;1501;-79
2022/12/21 01:02:15;;;;;;;36.78;26.55;;;;;;;12.74;69.79;100457.66;670090;29;1200;-79
2022/12/21 01:02:37;;;;;;;35.97;25.83;;;;;;;12.75;70.12;100458.56;672644;29;928;-80
2022/12/21 01:02:58;;;;;;;35.75;25.63;;;;;;;12.75;70.26;100453.31;674606;29;1170;-80
2022/12/21 01:03:19;;;;;;;33.85;24.63;;;;;;;12.63;70.44;100463.59;675227;29;1238;-79
2022/12/21 01:03:40;;;;;;;35.08;25.02;;;;;;;12.62;70.41;100452.28;675383;29;1001;-80
2022/12/21 01:04:03;;;;;;;35.63;24.90;;;;;;;12.69;70.41;100463.69;672703;29;1012;-79
2022/12/21 01:04:24;;;;;;;36.67;25.35;;;;;;;12.60;70.47;100460.09;675201;29;836;-79
2022/12/21 01:04:45;;;;;;;35.80;25.20;;;;;;;12.67;70.65;100463.66;677962;29;1285;-79
2022/12/21 01:05:05;;;;;;;37.47;26.20;;;;;;;12.68;70.55;100454.09;677764;29;1446;-80
2022/12/21 01:05:28;;;;;;;35.30;25.23;;;;;;;12.70;70.20;100462.84;675418;29;1122;-80
2022/12/21 01:05:50;;;;;;;36.05;25.00;;;;;;;12.71;70.52;100461.97;672939;29;1049;-80
2022/12/21 01:06:18;;;;;;;34.33;24.38;;;;;;;12.71;70.31;100455.00;675504;29;1202;-80
2022/12/21 01:06:39;;;;;;;35.45;24.92;;;;;;;12.70;70.11;100452.38;673490;29;1111;-79
2022/12/21 01:06:59;;;;;;;34.63;25.00;;;;;;;12.71;70.00;100455.00;671530;29;1118;-79
2022/12/21 01:07:20;;;;;;;34.67;25.20;;;;;;;12.74;70.15;100462.03;669005;29;1082;-79
2022/12/21 01:07:40;;;;;;;33.03;25.25;;;;;;;12.68;70.10;100456.72;671041;29;1213;-79
2022/12/21 01:08:01;;;;;;;34.20;25.43;;;;;;;12.67;70.20;100454.94;668021;29;1181;-79
2022/12/21 01:08:24;;;;;;;35.58;25.85;;;;;;;12.76;70.39;100468.16;675380;29;1216;-78
2022/12/21 01:08:45;;;;;;;36.88;25.75;;;;;;;12.67;70.18;100457.56;672057;29;1982;-79
2022/12/21 01:09:06;;;;;;;36.05;26.00;;;;;;;12.71;70.24;100457.63;670269;29;1455;-78
2022/12/21 01:09:27;;;;;;;36.75;26.08;;;;;;;12.71;70.26;100448.88;675378;29;1290;-79
2022/12/21 01:09:48;;;;;;;37.33;25.90;;;;;;;12.77;70.00;100458.59;678215;29;1136;-79
2022/12/21 01:10:09;;;;;;;37.15;25.75;;;;;;;12.69;70.36;100450.59;675527;29;1034;-77
2022/12/21 01:10:31;;;;;;;37.22;26.13;;;;;;;12.71;70.06;100452.41;677767;29;1391;-76
2022/12/21 01:11:03;;;;;;;35.53;25.98;;;;;;;12.70;70.33;100450.63;677855;29;1076;-77
2022/12/21 01:11:25;;;;;;;35.95;26.15;;;;;;;12.75;70.16;100461.19;672805;29;884;-77
2022/12/21 01:11:46;;;;;;;35.97;26.58;;;;;;;12.75;69.83;100459.44;672626;29;1326;-76
2022/12/21 01:12:07;;;;;;;36.28;26.17;;;;;;;12.76;70.06;100457.69;672493;29;973;-79
2022/12/21 01:12:27;;;;;;;37.37;26.60;;;;;;;12.77;69.90;100456.84;677712;29;1204;-78
2022/12/21 01:12:48;;;;;;;39.17;26.70;;;;;;;12.72;70.04;100450.66;672631;29;793;-79
2022/12/21 01:13:10;;;;;;;41.50;27.90;;;;;;;12.73;70.06;100452.44;675004;29;907;-78
2022/12/21 01:13:32;;;;;;;39.80;27.45;;;;;;;12.73;70.22;100461.13;675008;29;1129;-79
2022/12/21 01:13:54;;;;;;;38.83;27.08;;;;;;;12.73;69.94;100457.66;672619;29;1282;-79
2022/12/21 01:14:15;;;;;;;39.45;27.02;;;;;;;12.70;70.01;100457.59;677711;29;1340;-79
2022/12/21 01:14:35;;;;;;;39.53;26.17;;;;;;;12.67;70.25;100450.56;669798;29;1060;-78
2022/12/21 01:14:56;;;;;;;36.60;25.33;;;;;;;12.68;70.16;100464.56;672622;29;988;-79
2022/12/21 01:15:29;;;;;;;34.45;25.02;;;;;;;12.71;70.38;100460.25;670190;29;1102;-79
2022/12/21 01:15:50;;;;;;;35.90;25.65;;;;;;;12.69;70.47;100458.47;670010;29;1144;-79
2022/12/21 01:16:17;;;;;;;36.67;25.85;;;;;;;12.72;70.24;100463.75;672370;29;1180;-80
2022/12/21 01:16:37;;;;;;;37.92;26.73;;;;;;;12.72;70.24;100463.75;674888;29;1236;-79
2022/12/21 01:16:58;;;;;;;39.55;27.35;;;;;;;12.69;70.17;100455.84;675038;29;1106;-80
2022/12/21 01:17:19;;;;;;;41.55;27.90;;;;;;;12.73;70.27;100457.66;674992;29;1316;-79
2022/12/21 01:17:42;;;;;;;42.77;28.43;;;;;;;12.73;70.27;100463.75;675060;29;894;-79
2022/12/21 01:18:03;;;;;;;40.88;28.08;;;;;;;12.71;70.22;100460.25;674870;29;1116;-79
2022/12/21 01:18:24;;;;;;;39.33;28.07;;;;;;;12.76;70.21;100462.94;669771;29;1067;-79
2022/12/21 01:18:46;;;;;;;39.17;28.15;;;;;;;12.74;69.90;100464.66;669699;29;1356;-80
2022/12/21 01:19:07;;;;;;;40.35;27.88;;;;;;;12.73;70.08;100465.53;672340;29;1241;-79
2022/12/21 01:19:28;;;;;;;42.22;28.38;;;;;;;12.69;70.06;100455.84;674970;29;1144;-79
2022/12/21 01:19:49;;;;;;;43.60;28.70;;;;;;;12.70;70.07;100457.59;667273;29;1077;-80
2022/12/21 01:20:10;;;;;;;42.95;29.25;;;;;;;12.71;70.04;100462.88;667237;29;1117;-80
2022/12/21 01:20:31;;;;;;;42.50;28.27;;;;;;;12.71;70.04;100460.25;672303;29;1363;-80
2022/12/21 01:20:57;;;;;;;42.67;28.00;;;;;;;12.71;69.94;100459.34;675128;29;1193;-79
2022/12/21 01:21:24;;;;;;;40.90;27.30;;;;;;;12.68;70.19;100454.09;675016;29;1011;-80
2022/12/21 01:21:44;;;;;;;38.45;26.90;;;;;;;12.72;70.33;100461.16;676714;29;1294;-80
2022/12/21 01:22:05;;;;;;;39.33;27.35;;;;;;;12.72;70.25;100461.16;674905;29;1304;-80
2022/12/21 01:22:26;;;;;;;41.77;27.97;;;;;;;12.72;70.08;100458.53;675156;29;1051;-80
2022/12/21 01:22:46;;;;;;;42.47;28.73;;;;;;;12.71;70.11;100462.88;669829;29;1239;-79
2022/12/21 01:23:07;;;;;;;42.08;28.33;;;;;;;12.73;70.05;100460.28;669756;29;1174;-79
2022/12/21 01:23:28;;;;;;;39.90;27.93;;;;;;;12.69;70.31;100461.09;672527;29;1150;-80
2022/12/21 01:23:49;;;;;;;41.08;27.33;;;;;;;12.75;70.11;100455.94;670300;29;1344;-79
2022/12/21 01:24:11;;;;;;;42.15;27.83;;;;;;;12.73;70.41;100462.91;672403;29;1385;-79
2022/12/21 01:24:35;;;;;;;42.60;28.00;;;;;;;12.78;70.26;100470.81;669730;29;1374;-79
2022/12/21 01:24:56;;;;;;;40.42;27.90;;;;;;;12.67;70.31;100458.44;675143;29;1139;-80
2022/12/21 01:25:17;;;;;;;42.35;27.40;;;;;;;12.54;70.50;100457.38;676895;29;1112;-80
2022/12/21 01:25:42;;;;;;;40.58;26.80;;;;;;;12.45;70.98;100460.75;677715;29;997;-79
2022/12/21 01:26:02;;;;;;;42.03;26.83;;;;;;;12.41;70.99;100460.69;672320;29;2000;-77
2022/12/21 01:26:23;;;;;;;40.60;27.30;;;;;;;12.43;71.33;100470.28;672545;29;844;-79
2022/12/21 01:26:44;;;;;;;41.75;28.55;;;;;;;12.39;71.17;100467.63;672353;29;1378;-79
2022/12/21 01:27:04;;;;;;;40.50;28.50;;;;;;;12.32;71.30;100462.31;669780;29;1165;-79
2022/12/21 01:27:26;;;;;;;41.58;28.67;;;;;;;12.36;71.51;100470.19;672432;29;1216;-80
2022/12/21 01:27:46;;;;;;;41.55;27.90;;;;;;;12.36;71.47;100472.81;672503;29;781;-80
2022/12/21 01:28:07;;;;;;;42.23;28.30;;;;;;;12.38;71.48;100471.09;674683;29;1187;-80
2022/12/21 01:28:27;;;;;;;41.75;27.85;;;;;;;12.28;71.82;100470.09;674710;29;1410;-79
2022/12/21 01:28:48;;;;;;;41.58;27.63;;;;;;;12.28;71.50;100476.19;674710;29;1915;-80
2022/12/21 01:29:13;;;;;;;40.80;27.07;;;;;;;12.29;71.50;100471.84;669670;29;1074;-79
2022/12/21 01:29:33;;;;;;;40.38;26.73;;;;;;;12.29;71.52;100469.22;677524;29;1191;-79
2022/12/21 01:29:54;;;;;;;41.17;26.95;;;;;;;12.33;71.54;100478.88;677654;29;855;-79
2022/12/21 01:30:15;;;;;;;40.63;27.50;;;;;;;12.32;71.74;100478.00;674839;29;1174;-80
2022/12/21 01:30:38;;;;;;;38.47;27.80;;;;;;;12.32;71.93;100483.25;675044;29;998;-79
2022/12/21 01:31:01;;;;;;;37.45;27.85;;;;;;;12.28;71.73;100470.94;674974;29;1025;-80
2022/12/21 01:31:23;;;;;;;39.05;27.23;;;;;;;12.25;71.66;100475.25;672338;29;1110;-79
2022/12/21 01:31:43;;;;;;;39.17;26.52;;;;;;;12.23;71.81;100472.59;674768;29;1202;-79
2022/12/21 01:32:04;;;;;;;41.10;27.10;;;;;;;12.29;71.78;100480.56;671969;29;1278;-80
2022/12/21 01:32:28;;;;;;;41.15;27.95;;;;;;;12.29;71.75;100477.94;672479;29;1020;-80
2022/12/21 01:32:48;;;;;;;41.10;28.27;;;;;;;12.30;71.86;100484.06;672394;29;1069;-80
2022/12/21 01:33:16;;;;;;;40.47;27.98;;;;;;;12.27;72.09;100477.03;674930;29;1301;-80
2022/12/21 01:33:37;;;;;;;41.95;27.23;;;;;;;12.26;71.70;100470.06;674864;29;1200;-77
2022/12/21 01:33:58;;;;;;;41.47;27.00;;;;;;;12.27;71.81;100474.44;675095;29;1301;-77
2022/12/21 01:34:18;;;;;;;42.92;26.70;;;;;;;12.25;71.64;100470.91;672424;29;1056;-79
2022/12/21 01:34:40;;;;;;;40.95;26.90;;;;;;;12.29;71.77;100480.56;672398;29;1345;-80
2022/12/21 01:35:00;;;;;;;39.65;27.15;;;;;;;12.30;71.79;100479.69;672424;29;1274;-79
2022/12/21 01:35:21;;;;;;;39.58;27.88;;;;;;;12.24;71.94;100463.94;674993;29;1395;-80
2022/12/21 01:35:43;;;;;;;41.27;28.37;;;;;;;12.31;71.68;100485.81;672372;29;1228;-80
2022/12/21 01:36:08;;;;;;;41.90;27.75;;;;;;;12.33;71.99;100489.34;672526;29;1171;-80
2022/12/21 01:36:29;;;;;;;39.65;26.88;;;;;;;12.27;71.70;100478.75;669796;29;1271;-79
2022/12/21 01:36:50;;;;;;;38.73;26.43;;;;;;;12.26;71.81;100477.00;669856;29;803;-79
2022/12/21 01:37:10;;;;;;;38.05;26.40;;;;;;;12.25;71.99;100477.88;669891;29;1020;-79
2022/12/21 01:37:31;;;;;;;39.55;26.95;;;;;;;12.26;71.72;100483.13;672418;29;1028;-79
2022/12/21 01:37:52;;;;;;;40.55;27.20;;;;;;;12.27;71.87;100484.00;672426;29;833;-80
2022/12/21 01:38:13;;;;;;;40.40;27.57;;;;;;;12.27;71.66;100484.88;672430;29;1212;-80
2022/12/21 01:38:35;;;;;;;42.13;28.60;;;;;;;12.31;72.08;100498.91;674960;29;1109;-80
2022/12/21 01:38:55;;;;;;;43.10;29.38;;;;;;;12.25;72.03;100491.84;674938;29;1004;-79
2022/12/21 01:39:16;;;;;;;42.57;29.40;;;;;;;12.25;71.85;100488.34;675029;29;1170;-79
2022/12/21 01:39:37;;;;;;;41.47;28.05;;;;;;;12.28;71.93;100497.09;672365;29;1161;-80
2022/12/21 01:39:57;;;;;;;42.22;28.48;;;;;;;12.24;71.83;100486.56;669836;29;1198;-79
2022/12/21 01:40:18;;;;;;;42.17;28.50;;;;;;;12.43;71.83;100493.84;669913;29;1081;-79
2022/12/21 01:40:39;;;;;;;42.08;28.92;;;;;;;12.43;71.37;100479.91;669831;29;1120;-80
2022/12/21 01:41:02;;;;;;;43.22;28.70;;;;;;;12.57;71.17;100498.44;667160;29;1138;-80
2022/12/21 01:41:26;;;;;;;48.30;29.40;;;;;;;12.51;71.24;100474.78;669997;29;741;-79
2022/12/21 01:41:47;;;;;;;49.60;29.60;;;;;;;12.56;70.85;100484.47;669823;29;805;-79